Time;durP1;ratioP1;P1;durP2;ratioP2;P2;SDS_P1;SDS_P2;PMS_P1;PMS_P2;Temp;Humidity;BMP_temperature;BMP_pressure;BME280_temperature;BME280_humidity;BME280_pressure;Samples;Min_cycle;Max_cycle;Signal;HPM_P1;HPM_P2
2022/04/25 00:00:59;;;;;;;22.42;16.38;;;10.00;99.00;;;;;;5017518;28;91692;-69
2022/04/25 00:03:26;;;;;;;24.25;16.60;;;9.90;99.20;;;;;;5015781;28;96011;-69
2022/04/25 00:05:53;;;;;;;21.48;15.80;;;9.80;99.20;;;;;;5016778;28;92956;-69
2022/04/25 00:08:20;;;;;;;23.77;15.07;;;9.70;99.40;;;;;;5014527;28;95292;-69
2022/04/25 00:11:05;;;;;;;21.38;14.93;;;9.60;99.60;;;;;;5015986;28;92560;-69
2022/04/25 00:13:37;;;;;;;28.33;18.77;;;9.60;99.60;;;;;;5016022;28;93318;-69
2022/04/25 00:16:30;;;;;;;25.52;17.63;;;9.60;99.70;;;;;;5015728;28;93087;-69
2022/04/25 00:19:11;;;;;;;26.17;17.00;;;9.50;99.90;;;;;;5014029;28;92487;-69
2022/04/25 00:21:38;;;;;;;28.90;16.45;;;9.50;99.90;;;;;;4999078;28;93353;-69
2022/04/25 00:24:05;;;;;;;32.03;18.05;;;9.50;99.90;;;;;;5015250;28;95677;-70
2022/04/25 00:26:32;;;;;;;32.28;18.83;;;9.50;99.90;;;;;;5015745;28;95761;-69
2022/04/25 00:28:59;;;;;;;31.70;17.05;;;9.50;99.90;;;;;;5015007;28;92527;-70
2022/04/25 00:31:26;;;;;;;23.13;17.23;;;9.40;99.90;;;;;;5015739;28;92464;-69
2022/04/25 00:33:53;;;;;;;30.20;19.15;;;9.50;99.90;;;;;;5014257;28;95334;-70
2022/04/25 00:36:20;;;;;;;25.05;17.77;;;9.50;99.90;;;;;;5016311;28;94558;-70
2022/04/25 00:38:47;;;;;;;29.45;18.70;;;9.50;99.90;;;;;;5016826;28;92457;-70
2022/04/25 00:41:14;;;;;;;27.25;17.92;;;9.50;99.90;;;;;;5016664;28;92450;-70
2022/04/25 00:43:41;;;;;;;37.40;20.30;;;9.50;99.90;;;;;;5016654;28;93888;-70
2022/04/25 00:46:22;;;;;;;26.38;18.45;;;9.40;99.90;;;;;;5015015;28;95775;-70
2022/04/25 00:48:49;;;;;;;31.23;19.00;;;9.50;99.90;;;;;;5016775;28;92326;-70
2022/04/25 00:51:17;;;;;;;31.45;18.17;;;9.30;99.90;;;;;;5016802;28;91701;-70
2022/04/25 00:53:46;;;;;;;28.23;18.30;;;9.20;99.90;;;;;;5016558;28;93344;-70
2022/04/25 00:56:17;;;;;;;26.42;17.40;;;9.20;99.90;;;;;;4998428;28;95744;-70
2022/04/25 00:58:45;;;;;;;31.65;17.98;;;9.20;99.90;;;;;;5013845;28;94865;-70
2022/04/25 01:01:13;;;;;;;27.35;17.58;;;9.10;99.90;;;;;;5015205;28;92467;-70
2022/04/25 01:03:40;;;;;;;27.23;17.23;;;9.00;99.90;;;;;;5016310;28;93182;-70
2022/04/25 01:06:07;;;;;;;25.90;16.85;;;8.90;99.90;;;;;;5014525;28;95616;-70
2022/04/25 01:08:37;;;;;;;25.90;17.20;;;8.90;99.90;;;;;;4997711;28;97604;-70
2022/04/25 01:11:05;;;;;;;25.98;16.65;;;8.80;99.90;;;;;;5014940;28;92411;-70
2022/04/25 01:13:32;;;;;;;29.65;17.77;;;8.80;99.90;;;;;;5016211;28;95103;-70
2022/04/25 01:15:59;;;;;;;23.40;16.60;;;8.80;99.90;;;;;;5014953;28;95619;-70
2022/04/25 01:18:26;;;;;;;25.98;17.67;;;8.70;99.90;;;;;;5013567;28;107739;-70
2022/04/25 01:20:56;;;;;;;21.98;13.63;;;8.70;99.90;;;;;;4998194;28;92547;-70
2022/04/25 01:28:58;;;;;;;25.15;16.35;;;8.70;99.90;;;;;;5014721;28;92841;-70
2022/04/25 01:31:25;;;;;;;22.92;16.15;;;8.60;99.90;;;;;;5015470;28;92375;-70
2022/04/25 01:33:53;;;;;;;27.10;15.55;;;8.60;99.90;;;;;;5016062;28;93060;-70
2022/04/25 01:36:24;;;;;;;22.50;14.98;;;8.60;99.70;;;;;;5015603;28;93280;-70
2022/04/25 01:38:54;;;;;;;28.23;17.25;;;8.50;99.60;;;;;;5014550;28;92444;-70
2022/04/25 01:41:21;;;;;;;24.45;15.02;;;8.50;99.60;;;;;;5016217;28;91701;-70
2022/04/25 01:43:48;;;;;;;23.25;14.15;;;8.40;99.50;;;;;;5014057;28;95784;-70
2022/04/25 01:46:15;;;;;;;24.10;15.32;;;8.40;99.30;;;;;;5014263;28;93058;-70
2022/04/25 01:48:42;;;;;;;24.85;14.82;;;8.30;99.40;;;;;;5013362;28;94818;-70
2022/04/25 01:51:11;;;;;;;25.55;14.77;;;8.30;99.40;;;;;;5014554;28;93122;-70
2022/04/25 01:53:38;;;;;;;21.05;13.90;;;8.30;99.40;;;;;;5014187;28;94733;-70
2022/04/25 01:56:05;;;;;;;24.77;14.90;;;8.30;99.40;;;;;;5014247;28;93005;-70
2022/04/25 01:58:31;;;;;;;22.02;13.32;;;8.30;99.60;;;;;;5013643;28;92385;-70
2022/04/25 02:00:58;;;;;;;25.10;14.23;;;8.30;99.50;;;;;;5014349;28;92496;-70
2022/04/25 02:03:25;;;;;;;23.77;15.52;;;8.30;99.30;;;;;;5013886;28;93257;-70
2022/04/25 02:05:52;;;;;;;21.17;12.55;;;8.40;99.60;;;;;;4997572;28;95748;-70
2022/04/25 02:08:19;;;;;;;20.15;13.77;;;8.40;99.40;;;;;;5014255;28;92393;-70
2022/04/25 02:11:19;;;;;;;18.65;13.13;;;8.40;99.10;;;;;;5031082;27;92443;-70
2022/04/25 02:13:33;;;;;;;18.48;11.88;;;8.40;99.10;;;;;;5013293;28;95726;-70
2022/04/25 02:16:01;;;;;;;22.92;13.73;;;8.40;98.80;;;;;;5013741;28;106047;-70
2022/04/25 02:18:28;;;;;;;20.58;13.10;;;8.50;98.90;;;;;;5014272;28;93148;-70
2022/04/25 02:20:55;;;;;;;18.80;12.50;;;8.50;98.80;;;;;;5014143;28;92406;-70
2022/04/25 02:23:23;;;;;;;19.27;12.55;;;8.50;98.70;;;;;;5013685;27;96120;-70
2022/04/25 02:25:50;;;;;;;18.63;11.75;;;8.50;98.40;;;;;;5013460;28;95681;-70
2022/04/25 02:28:17;;;;;;;18.50;11.90;;;8.50;98.50;;;;;;5014828;28;95294;-70
2022/04/25 02:30:44;;;;;;;17.75;12.45;;;8.60;98.40;;;;;;5015611;28;91947;-70
2022/04/25 02:33:11;;;;;;;22.67;12.52;;;8.50;98.10;;;;;;5014949;28;93300;-70
2022/04/25 02:35:38;;;;;;;22.95;14.25;;;8.60;98.40;;;;;;5013130;28;95828;-70
2022/04/25 02:38:05;;;;;;;16.88;13.23;;;8.60;98.10;;;;;;5013761;28;94920;-70
2022/04/25 02:40:32;;;;;;;18.63;12.85;;;8.70;98.10;;;;;;5014920;28;92491;-70
2022/04/25 02:42:59;;;;;;;20.08;13.05;;;8.70;97.90;;;;;;5013317;28;94111;-70
2022/04/25 02:45:26;;;;;;;19.67;12.10;;;8.70;98.00;;;;;;5013553;28;93050;-70
2022/04/25 02:47:53;;;;;;;23.95;13.65;;;8.70;97.90;;;;;;5013728;28;92347;-70
2022/04/25 02:50:20;;;;;;;25.48;14.02;;;8.70;98.10;;;;;;5013601;28;92540;-70
2022/04/25 02:52:51;;;;;;;23.25;13.23;;;8.70;97.90;;;;;;5013177;28;95754;-70
2022/04/25 02:55:18;;;;;;;21.40;12.88;;;8.70;97.70;;;;;;5015327;28;93026;-70
2022/04/25 02:57:44;;;;;;;18.10;12.15;;;8.80;97.90;;;;;;5013289;28;101670;-70
2022/04/25 03:00:12;;;;;;;19.60;12.65;;;8.80;97.80;;;;;;5014778;28;92446;-70
2022/04/25 03:02:39;;;;;;;17.50;12.40;;;8.80;97.80;;;;;;5013131;28;95469;-70
2022/04/25 03:05:07;;;;;;;16.58;11.07;;;8.80;97.60;;;;;;5012685;28;95541;-70
2022/04/25 03:07:34;;;;;;;15.15;10.35;;;8.80;97.60;;;;;;5014524;28;92392;-70
2022/04/25 03:10:01;;;;;;;17.23;11.95;;;8.80;97.40;;;;;;5013263;28;92706;-70
2022/04/25 03:12:27;;;;;;;16.35;12.00;;;8.80;97.30;;;;;;5014177;28;94049;-70
2022/04/25 03:14:54;;;;;;;18.35;12.27;;;8.80;97.30;;;;;;5046672;27;95832;-70
2022/04/25 03:17:21;;;;;;;17.75;11.90;;;8.80;97.30;;;;;;5014070;28;92449;-70
2022/04/25 03:19:48;;;;;;;19.15;12.43;;;8.80;97.30;;;;;;5014672;28;91657;-70
2022/04/25 03:22:15;;;;;;;17.35;11.68;;;8.80;97.20;;;;;;5013330;28;93254;-70
2022/04/25 03:24:42;;;;;;;17.15;11.48;;;8.80;97.30;;;;;;5012974;28;93235;-70
2022/04/25 03:27:09;;;;;;;16.60;11.13;;;8.80;97.30;;;;;;5013462;28;94872;-70
2022/04/25 03:29:36;;;;;;;18.02;11.05;;;8.80;97.10;;;;;;5012905;28;92468;-70
2022/04/25 03:32:03;;;;;;;16.73;11.40;;;8.80;97.00;;;;;;5017752;28;93305;-70
2022/04/25 03:34:32;;;;;;;15.23;11.13;;;8.80;96.90;;;;;;5015941;28;95741;-70
2022/04/25 03:37:00;;;;;;;15.00;11.55;;;8.80;96.90;;;;;;5000529;28;92550;-70
2022/04/25 03:39:27;;;;;;;18.08;10.70;;;8.80;97.00;;;;;;5016206;28;92528;-70
2022/04/25 03:41:54;;;;;;;25.85;12.68;;;8.80;96.90;;;;;;5017461;28;93228;-70
2022/04/25 03:44:21;;;;;;;17.65;11.20;;;8.80;97.00;;;;;;4999928;28;95768;-70
2022/04/25 03:46:48;;;;;;;15.07;11.60;;;8.80;96.90;;;;;;5017400;28;92470;-70
2022/04/25 03:49:15;;;;;;;25.48;11.38;;;8.80;97.10;;;;;;5016448;28;92477;-70
2022/04/25 03:51:42;;;;;;;15.27;11.48;;;8.90;97.10;;;;;;5014500;28;98309;-70
2022/04/25 03:54:09;;;;;;;21.85;12.77;;;8.80;97.00;;;;;;5017368;28;95335;-70
2022/04/25 03:59:23;;;;;;;16.33;10.77;;;8.90;96.70;;;;;;5016731;28;92865;-70
2022/04/25 04:01:50;;;;;;;18.08;11.90;;;8.90;96.70;;;;;;5015783;28;93268;-70
2022/04/25 04:04:17;;;;;;;16.10;11.27;;;8.90;96.80;;;;;;5016069;28;93327;-70
2022/04/25 04:06:43;;;;;;;14.85;10.50;;;8.90;96.80;;;;;;5015728;28;92514;-70
2022/04/25 04:11:56;;;;;;;14.85;9.65;;;8.90;96.60;;;;;;5016161;28;93236;-70
2022/04/25 04:14:23;;;;;;;14.93;9.65;;;8.90;96.70;;;;;;5016265;28;94619;-70
2022/04/25 04:16:49;;;;;;;15.07;8.77;;;9.00;96.70;;;;;;5016009;28;94812;-70
2022/04/25 04:19:16;;;;;;;12.40;9.32;;;8.90;96.50;;;;;;5017876;28;92449;-70
2022/04/25 04:21:43;;;;;;;13.68;9.40;;;8.90;96.50;;;;;;4999430;28;98846;-70
2022/04/25 04:24:10;;;;;;;13.10;9.45;;;8.90;96.50;;;;;;5016136;28;94421;-70
2022/04/25 04:26:37;;;;;;;13.15;9.15;;;8.90;96.50;;;;;;5017447;28;92466;-70
2022/04/25 04:29:04;;;;;;;14.82;9.63;;;8.90;96.60;;;;;;5017304;28;98482;-70
2022/04/25 04:31:31;;;;;;;12.38;9.15;;;9.00;96.40;;;;;;5017195;28;93386;-70
2022/04/25 04:33:58;;;;;;;14.05;9.50;;;9.00;96.60;;;;;;5016234;28;95548;-70
2022/04/25 04:36:26;;;;;;;12.18;7.97;;;9.10;96.60;;;;;;5016024;28;92409;-70
2022/04/25 04:38:53;;;;;;;11.73;9.27;;;9.00;96.50;;;;;;5017249;28;92555;-70
2022/04/25 04:41:20;;;;;;;12.20;8.77;;;9.00;96.40;;;;;;5015597;28;95674;-70
2022/04/25 04:43:47;;;;;;;11.30;8.20;;;9.00;96.40;;;;;;5015701;28;95280;-70
2022/04/25 04:46:13;;;;;;;17.30;10.18;;;9.10;96.50;;;;;;5032823;27;92432;-70
2022/04/25 04:48:40;;;;;;;11.85;8.45;;;9.20;96.50;;;;;;5015238;28;92450;-70
2022/04/25 04:51:08;;;;;;;15.48;8.80;;;9.20;96.40;;;;;;5015833;28;95740;-70
2022/04/25 04:53:35;;;;;;;12.13;8.43;;;9.10;96.10;;;;;;5015061;28;95468;-70
2022/04/25 04:56:03;;;;;;;14.45;9.00;;;9.20;96.30;;;;;;5015870;28;92487;-70
2022/04/25 04:58:30;;;;;;;13.57;9.05;;;9.20;96.20;;;;;;5016400;28;91884;-70
2022/04/25 05:00:57;;;;;;;13.65;8.70;;;9.20;96.10;;;;;;5016697;28;93161;-70
2022/04/25 05:03:25;;;;;;;14.63;8.85;;;9.30;96.10;;;;;;5016812;28;92891;-70
2022/04/25 05:05:53;;;;;;;14.70;9.23;;;9.20;96.00;;;;;;5014032;28;94929;-70
2022/04/25 05:08:20;;;;;;;13.75;9.18;;;9.30;96.10;;;;;;5016999;28;92546;-70
2022/04/25 05:10:48;;;;;;;10.57;9.00;;;9.30;96.10;;;;;;5016097;28;106648;-70
2022/04/25 05:13:15;;;;;;;13.65;9.68;;;9.30;96.20;;;;;;5031808;28;95715;-70
2022/04/25 05:15:42;;;;;;;12.57;10.32;;;9.30;96.30;;;;;;5015384;28;92412;-70
2022/04/25 05:18:09;;;;;;;13.05;10.05;;;9.30;96.20;;;;;;5014038;28;92483;-70
2022/04/25 05:20:36;;;;;;;16.73;10.18;;;9.30;96.10;;;;;;5015888;28;93131;-70
2022/04/25 05:23:04;;;;;;;16.63;10.50;;;9.40;96.20;;;;;;5016478;28;92982;-70
2022/04/25 05:25:33;;;;;;;12.45;10.55;;;9.40;96.20;;;;;;5014858;28;92528;-70
2022/04/25 05:28:00;;;;;;;12.38;10.07;;;9.40;96.00;;;;;;5015741;28;92574;-70
2022/04/25 05:30:28;;;;;;;15.35;11.13;;;9.50;96.00;;;;;;5013239;28;95580;-70
2022/04/25 05:32:57;;;;;;;15.30;10.98;;;9.60;95.90;;;;;;5014238;28;95270;-70
2022/04/25 05:35:26;;;;;;;12.85;10.13;;;9.60;95.80;;;;;;5015631;28;92395;-70
2022/04/25 05:37:54;;;;;;;16.42;11.68;;;9.70;95.40;;;;;;5014491;28;92483;-70
2022/04/25 05:40:22;;;;;;;18.27;10.70;;;9.80;95.50;;;;;;5031112;27;96214;-70
2022/04/25 05:42:50;;;;;;;16.50;10.98;;;9.90;95.10;;;;;;5014263;28;93112;-70
2022/04/25 05:45:22;;;;;;;14.30;10.80;;;10.00;95.10;;;;;;5015633;28;92515;-70
2022/04/25 05:47:51;;;;;;;13.75;10.65;;;10.10;94.70;;;;;;5015575;28;91641;-70
2022/04/25 05:53:04;;;;;;;16.73;11.05;;;10.20;94.20;;;;;;5013243;28;95711;-70
2022/04/25 05:55:32;;;;;;;16.20;11.68;;;10.20;94.20;;;;;;5012921;28;95066;-70
2022/04/25 05:58:02;;;;;;;12.45;10.25;;;10.30;93.90;;;;;;5013251;28;107190;-69
2022/04/25 06:00:30;;;;;;;12.50;10.35;;;10.20;93.70;;;;;;5015176;28;93191;-69
2022/04/25 06:02:58;;;;;;;13.77;9.88;;;10.20;93.40;;;;;;5013739;28;93051;-69
2022/04/25 06:05:25;;;;;;;12.40;9.13;;;10.10;93.50;;;;;;5014494;28;92422;-69
2022/04/25 06:07:52;;;;;;;15.23;9.57;;;10.00;93.50;;;;;;5031005;28;92447;-69
2022/04/25 06:10:28;;;;;;;16.88;10.32;;;9.90;93.80;;;;;;5031184;27;93334;-69
2022/04/25 06:12:55;;;;;;;13.50;8.38;;;10.00;93.90;;;;;;5015306;28;93767;-70
2022/04/25 06:15:26;;;;;;;10.95;9.18;;;9.90;93.70;;;;;;5014111;28;92480;-69
2022/04/25 06:17:54;;;;;;;11.43;8.73;;;9.90;93.80;;;;;;5013959;28;92512;-69
2022/04/25 06:20:22;;;;;;;11.63;9.45;;;9.90;93.70;;;;;;5014450;28;96080;-69
2022/04/25 06:22:54;;;;;;;13.10;8.93;;;9.90;93.90;;;;;;5014047;28;97888;-69
2022/04/25 06:25:22;;;;;;;10.52;8.23;;;9.90;93.90;;;;;;5014472;28;93075;-69
2022/04/25 06:27:48;;;;;;;10.32;8.95;;;9.80;93.70;;;;;;5014077;28;92507;-69
2022/04/25 06:30:16;;;;;;;12.20;8.98;;;9.80;93.80;;;;;;5015644;28;93243;-69
2022/04/25 06:32:43;;;;;;;12.32;9.80;;;9.80;94.00;;;;;;5015359;28;92952;-69
2022/04/25 06:35:11;;;;;;;10.55;8.88;;;9.70;93.80;;;;;;4997570;28;92516;-69
2022/04/25 06:37:38;;;;;;;13.70;9.38;;;9.70;93.80;;;;;;5015655;28;91713;-69
2022/04/25 06:40:07;;;;;;;10.55;7.38;;;9.70;94.00;;;;;;5013991;28;93197;-70
2022/04/25 06:42:34;;;;;;;9.85;8.73;;;9.60;93.80;;;;;;5014103;28;93211;-69
2022/04/25 06:45:01;;;;;;;10.30;8.88;;;9.60;94.00;;;;;;5014173;28;94932;-69
2022/04/25 06:47:28;;;;;;;10.77;7.25;;;9.60;93.90;;;;;;5015129;28;100668;-69
2022/04/25 06:49:55;;;;;;;15.50;9.18;;;9.50;93.90;;;;;;5013968;28;93244;-69
2022/04/25 06:52:22;;;;;;;10.85;8.52;;;9.50;94.10;;;;;;5015229;28;92913;-69
2022/04/25 06:54:50;;;;;;;10.60;8.25;;;9.50;94.30;;;;;;4997448;28;92500;-69
2022/04/25 06:57:17;;;;;;;12.00;10.05;;;9.40;94.30;;;;;;5015376;28;92779;-70
2022/04/25 06:59:45;;;;;;;15.85;10.65;;;9.30;94.90;;;;;;5029863;28;95692;-70
2022/04/25 07:02:13;;;;;;;16.20;10.27;;;9.40;95.30;;;;;;5014810;28;92984;-70
2022/04/25 07:04:42;;;;;;;13.13;10.63;;;9.40;95.80;;;;;;5014916;28;92712;-70
2022/04/25 07:07:09;;;;;;;13.82;10.10;;;9.40;95.90;;;;;;5050074;27;92550;-70
2022/04/25 07:09:36;;;;;;;14.05;10.20;;;9.30;95.80;;;;;;5016991;28;95682;-70
2022/04/25 07:12:03;;;;;;;14.30;10.40;;;9.30;95.50;;;;;;4999673;28;98127;-70
2022/04/25 07:14:33;;;;;;;12.95;10.48;;;9.30;95.50;;;;;;5000219;28;92523;-70
2022/04/25 07:17:02;;;;;;;14.02;10.77;;;9.30;95.80;;;;;;5017302;28;92481;-70
2022/04/25 07:19:30;;;;;;;14.82;10.95;;;9.40;96.10;;;;;;5016376;28;95756;-70
2022/04/25 07:30:15;;;;;;;12.88;10.02;;;9.60;95.40;;;;;;5017598;28;93202;-70
2022/04/25 07:32:42;;;;;;;17.85;10.98;;;9.60;96.00;;;;;;5049153;27;104463;-70
2022/04/25 07:35:10;;;;;;;14.68;11.20;;;9.70;95.60;;;;;;5016501;28;94902;-70
2022/04/25 07:37:37;;;;;;;17.85;11.82;;;9.70;95.70;;;;;;5016378;28;92531;-70
2022/04/25 07:40:08;;;;;;;14.75;10.77;;;9.80;95.60;;;;;;5049506;27;93142;-70
2022/04/25 07:42:36;;;;;;;18.90;11.80;;;9.70;95.10;;;;;;5017805;28;93020;-70
2022/04/25 07:45:04;;;;;;;14.70;10.52;;;9.70;95.20;;;;;;5016188;28;92357;-70
2022/04/25 07:47:32;;;;;;;15.57;10.40;;;9.60;95.30;;;;;;5049972;27;92451;-70
2022/04/25 07:50:00;;;;;;;15.93;9.82;;;9.60;95.50;;;;;;5048927;27;93248;-70
2022/04/25 07:52:27;;;;;;;16.90;11.23;;;9.60;95.40;;;;;;5017248;28;92889;-70
2022/04/25 07:54:56;;;;;;;13.93;10.10;;;9.70;95.70;;;;;;5017478;28;92464;-70
2022/04/25 07:57:24;;;;;;;13.70;9.77;;;9.60;95.20;;;;;;5017560;28;92436;-70
2022/04/25 07:59:51;;;;;;;16.92;10.55;;;9.70;95.30;;;;;;5015479;28;94896;-70
2022/04/25 08:02:18;;;;;;;15.07;10.93;;;9.80;95.60;;;;;;4999151;28;98174;-70
2022/04/25 08:04:45;;;;;;;13.15;9.55;;;9.80;95.30;;;;;;5032750;28;92380;-70
2022/04/25 08:07:13;;;;;;;13.98;9.93;;;9.90;95.30;;;;;;5017271;28;92308;-70
2022/04/25 08:09:40;;;;;;;12.75;8.45;;;9.90;94.50;;;;;;5017743;28;93144;-70
2022/04/25 08:20:25;;;;;;;13.85;10.57;;;10.20;94.80;;;;;;5017672;28;93290;-70
2022/04/25 08:22:52;;;;;;;14.63;10.00;;;10.10;94.50;;;;;;5032077;28;98365;-70
2022/04/25 08:25:20;;;;;;;14.98;9.65;;;10.10;94.40;;;;;;5014538;28;94932;-70
2022/04/25 08:27:46;;;;;;;14.85;9.63;;;10.20;94.50;;;;;;5016159;28;93928;-70
2022/04/25 08:30:14;;;;;;;13.90;9.90;;;10.10;94.20;;;;;;5032370;27;95673;-70
2022/04/25 08:32:41;;;;;;;11.68;8.93;;;10.10;94.00;;;;;;5017376;28;93095;-70
2022/04/25 08:35:11;;;;;;;14.05;8.80;;;10.10;94.20;;;;;;5017204;28;92436;-70
2022/04/25 08:37:39;;;;;;;10.80;8.55;;;10.10;95.00;;;;;;5016233;28;93052;-70
2022/04/25 08:40:06;;;;;;;14.63;9.35;;;10.10;94.70;;;;;;5016967;28;92355;-70
2022/04/25 08:42:33;;;;;;;15.65;11.32;;;10.10;95.10;;;;;;5015909;28;95501;-70
2022/04/25 08:45:11;;;;;;;17.63;11.35;;;10.20;96.00;;;;;;5015358;28;92582;-70
2022/04/25 08:47:47;;;;;;;17.27;11.63;;;10.10;96.90;;;;;;5015283;28;92500;-70
2022/04/25 08:50:18;;;;;;;18.40;11.88;;;10.00;96.90;;;;;;5015329;28;94733;-70
2022/04/25 08:52:46;;;;;;;15.70;11.88;;;9.90;97.30;;;;;;5015033;28;98240;-70
2022/04/25 08:55:15;;;;;;;18.73;10.80;;;9.70;96.90;;;;;;5015918;28;92340;-70
2022/04/25 08:57:44;;;;;;;18.02;11.02;;;9.60;96.20;;;;;;5031887;28;92452;-70
2022/04/25 09:00:12;;;;;;;12.18;8.95;;;9.60;96.70;;;;;;5016143;28;93257;-70
2022/04/25 09:02:44;;;;;;;16.23;9.63;;;9.60;96.40;;;;;;5017172;28;92347;-70
2022/04/25 09:05:12;;;;;;;13.07;9.60;;;9.60;96.20;;;;;;5015529;28;92505;-70
2022/04/25 09:07:40;;;;;;;14.60;10.13;;;9.60;96.40;;;;;;5015512;28;104577;-70
2022/04/25 09:10:10;;;;;;;15.40;9.70;;;9.70;96.70;;;;;;5014482;28;96035;-70
2022/04/25 09:12:38;;;;;;;16.85;8.95;;;9.80;96.70;;;;;;5016444;28;96108;-70
2022/04/25 09:15:08;;;;;;;13.15;9.40;;;9.80;96.00;;;;;;5014391;28;94776;-70
2022/04/25 09:17:54;;;;;;;13.38;8.80;;;9.90;95.60;;;;;;5016232;28;92368;-70
2022/04/25 09:20:21;;;;;;;14.15;9.15;;;9.90;95.40;;;;;;5016214;28;93489;-70
2022/04/25 09:22:49;;;;;;;11.40;7.70;;;10.00;95.10;;;;;;4998639;28;95439;-69
2022/04/25 09:25:17;;;;;;;13.80;8.07;;;10.20;95.80;;;;;;4998456;28;92415;-69
2022/04/25 09:28:08;;;;;;;15.90;7.40;;;10.40;94.90;;;;;;5001127;28;92828;-70
2022/04/25 09:30:35;;;;;;;8.65;6.78;;;10.60;94.60;;;;;;5016150;28;93268;-69
2022/04/25 09:33:02;;;;;;;10.82;6.88;;;10.60;94.00;;;;;;4998807;28;95467;-70
2022/04/25 09:35:41;;;;;;;13.73;7.00;;;10.90;93.90;;;;;;5014816;28;92484;-69
2022/04/25 09:38:09;;;;;;;11.73;7.85;;;11.10;93.10;;;;;;5015167;28;92426;-70
2022/04/25 09:40:38;;;;;;;11.73;6.25;;;11.30;92.80;;;;;;5013692;28;95635;-69
2022/04/25 09:43:13;;;;;;;10.77;7.07;;;11.50;92.40;;;;;;5015840;28;95450;-70
2022/04/25 09:45:43;;;;;;;13.48;7.05;;;11.80;92.80;;;;;;5016479;28;92436;-70
2022/04/25 09:48:15;;;;;;;10.32;7.57;;;12.10;92.10;;;;;;5016242;28;92450;-70
2022/04/25 09:50:44;;;;;;;7.72;6.60;;;12.30;91.40;;;;;;5016291;28;93151;-70
2022/04/25 09:53:13;;;;;;;10.88;7.60;;;12.50;90.80;;;;;;5014895;28;93032;-70
2022/04/25 09:55:41;;;;;;;8.07;7.30;;;12.80;90.90;;;;;;5015713;28;94034;-70
2022/04/25 09:58:22;;;;;;;9.32;7.38;;;12.90;90.20;;;;;;5016426;28;93185;-70
2022/04/25 10:00:53;;;;;;;8.93;6.50;;;13.10;89.80;;;;;;5016201;28;93243;-70
2022/04/25 10:03:36;;;;;;;9.70;7.20;;;13.30;89.00;;;;;;5014590;28;93998;-70
2022/04/25 10:06:04;;;;;;;7.57;6.72;;;13.50;88.50;;;;;;5013815;28;95061;-70
2022/04/25 10:08:35;;;;;;;8.52;7.25;;;13.40;86.10;;;;;;5015851;28;92769;-70
2022/04/25 10:11:04;;;;;;;8.93;7.57;;;13.50;86.20;;;;;;5014810;28;93238;-70
2022/04/25 10:13:32;;;;;;;7.85;7.10;;;13.50;85.90;;;;;;5014053;28;95534;-70
2022/04/25 10:16:00;;;;;;;8.40;7.00;;;13.70;86.30;;;;;;5014632;28;92441;-70
2022/04/25 10:18:30;;;;;;;7.93;6.93;;;14.00;86.20;;;;;;5015031;28;92447;-70
2022/04/25 10:21:00;;;;;;;9.70;7.57;;;14.10;84.00;;;;;;5014668;28;93183;-70
2022/04/25 10:23:27;;;;;;;8.60;7.70;;;14.20;84.00;;;;;;5014672;28;92623;-70
2022/04/25 10:25:57;;;;;;;12.35;7.40;;;14.20;83.70;;;;;;5014784;28;92465;-70
2022/04/25 10:28:42;;;;;;;12.73;8.38;;;14.30;83.40;;;;;;5014157;28;92593;-70
2022/04/25 10:31:26;;;;;;;9.15;8.15;;;14.60;81.60;;;;;;5014334;28;95402;-70
2022/04/25 10:33:59;;;;;;;8.77;7.97;;;14.70;82.10;;;;;;5015488;28;95242;-70
2022/04/25 10:36:38;;;;;;;8.90;7.93;;;14.90;81.00;;;;;;5015579;28;92355;-70
2022/04/25 10:39:19;;;;;;;10.05;7.40;;;15.10;79.00;;;;;;5014196;28;92917;-70
2022/04/25 10:44:44;;;;;;;8.30;7.38;;;15.10;79.00;;;;;;5015188;28;92991;-70
2022/04/25 10:47:16;;;;;;;9.70;6.82;;;15.20;78.90;;;;;;5014050;28;92527;-70
2022/04/25 10:50:10;;;;;;;8.93;7.38;;;15.30;78.20;;;;;;5014129;28;91659;-70
2022/04/25 10:52:42;;;;;;;8.15;7.05;;;15.40;77.00;;;;;;4995671;28;94504;-70
2022/04/25 10:55:09;;;;;;;8.52;7.53;;;15.40;77.80;;;;;;5015550;28;93002;-70
2022/04/25 10:57:36;;;;;;;8.52;7.72;;;15.30;78.10;;;;;;5014186;28;95254;-70
2022/04/25 11:00:41;;;;;;;7.65;6.80;;;15.50;77.50;;;;;;5013303;28;98042;-70
2022/04/25 11:03:13;;;;;;;7.38;6.78;;;15.60;78.30;;;;;;5014257;28;93274;-70
2022/04/25 11:05:41;;;;;;;8.68;6.68;;;15.60;77.70;;;;;;5015096;28;93618;-70
2022/04/25 11:08:20;;;;;;;9.32;6.80;;;15.50;77.30;;;;;;5013871;28;92461;-70
2022/04/25 11:11:09;;;;;;;7.43;6.65;;;15.40;76.20;;;;;;5014371;28;92511;-70
2022/04/25 11:14:01;;;;;;;7.07;6.43;;;15.40;75.90;;;;;;5014908;28;92606;-70
2022/04/25 11:16:28;;;;;;;8.85;7.95;;;15.40;76.00;;;;;;5014590;28;92983;-70
2022/04/25 11:19:19;;;;;;;10.15;6.80;;;15.40;76.90;;;;;;5014707;28;92490;-70
2022/04/25 11:21:49;;;;;;;7.28;6.60;;;15.60;76.10;;;;;;5015010;28;92415;-70
2022/04/25 11:24:48;;;;;;;9.45;6.88;;;15.80;76.00;;;;;;5012313;28;95699;-70
2022/04/25 11:27:16;;;;;;;9.18;6.85;;;15.90;75.00;;;;;;5001321;28;99224;-70
2022/04/25 11:29:45;;;;;;;8.20;6.65;;;16.20;74.90;;;;;;5014986;28;92473;-70
2022/04/25 11:32:32;;;;;;;8.43;7.57;;;16.50;74.10;;;;;;4997058;28;96761;-70
2022/04/25 11:35:00;;;;;;;9.48;7.65;;;16.70;72.30;;;;;;5014782;28;93142;-70
2022/04/25 11:37:29;;;;;;;8.68;7.57;;;16.70;72.70;;;;;;5014296;28;93064;-70
2022/04/25 11:40:00;;;;;;;8.18;7.03;;;16.90;72.30;;;;;;5014966;28;92903;-70
2022/04/25 11:42:33;;;;;;;8.15;6.90;;;17.10;72.10;;;;;;5015120;28;91695;-70
2022/04/25 11:45:01;;;;;;;9.30;7.20;;;17.20;71.60;;;;;;5013380;28;93181;-70
2022/04/25 11:47:32;;;;;;;8.82;7.75;;;17.30;71.30;;;;;;5014271;28;93083;-70
2022/04/25 11:50:07;;;;;;;8.57;7.22;;;17.30;70.80;;;;;;5014726;28;95049;-70
2022/04/25 11:52:43;;;;;;;9.57;6.32;;;17.50;70.90;;;;;;5027902;28;92428;-70
2022/04/25 11:55:10;;;;;;;7.80;7.00;;;17.60;70.50;;;;;;5070807;27;93431;-70
2022/04/25 11:57:41;;;;;;;9.60;8.05;;;17.90;70.30;;;;;;5037835;27;92521;-70
2022/04/25 12:00:10;;;;;;;7.53;6.55;;;18.10;69.00;;;;;;5038133;27;92332;-70
2022/04/25 12:02:40;;;;;;;7.07;6.40;;;18.30;68.40;;;;;;5034714;27;92638;-70
2022/04/25 12:05:09;;;;;;;9.95;8.95;;;18.30;68.20;;;;;;5036784;28;93286;-70
2022/04/25 12:07:37;;;;;;;9.95;7.93;;;18.30;68.70;;;;;;5036510;28;92896;-70
2022/04/25 12:15:42;;;;;;;8.35;7.47;;;18.40;67.80;;;;;;5036339;28;95568;-70
2022/04/25 12:18:26;;;;;;;9.45;8.55;;;18.20;67.80;;;;;;5052818;27;98053;-70
2022/04/25 12:21:15;;;;;;;11.75;9.32;;;18.10;67.90;;;;;;5038178;27;92820;-70
2022/04/25 12:23:53;;;;;;;9.23;8.00;;;17.90;68.80;;;;;;5037834;27;92390;-70
2022/04/25 12:26:22;;;;;;;8.52;7.65;;;17.60;69.10;;;;;;5019313;28;98385;-70
2022/04/25 12:29:00;;;;;;;10.90;8.38;;;17.60;70.10;;;;;;5037383;28;92866;-70
2022/04/25 12:31:28;;;;;;;10.95;9.35;;;17.60;70.00;;;;;;5038049;28;92501;-70
2022/04/25 12:33:55;;;;;;;8.43;7.65;;;17.40;69.80;;;;;;5019455;27;91797;-70
2022/04/25 12:36:27;;;;;;;10.00;7.68;;;17.30;70.70;;;;;;5037425;28;93273;-70
2022/04/25 12:39:19;;;;;;;11.02;9.95;;;17.20;71.30;;;;;;5036744;28;93137;-70
2022/04/25 12:41:58;;;;;;;10.48;9.10;;;17.10;71.80;;;;;;5034751;28;94809;-70
2022/04/25 12:44:28;;;;;;;10.05;9.05;;;17.10;71.80;;;;;;5037648;27;92455;-70
2022/04/25 12:47:04;;;;;;;10.18;8.82;;;17.00;71.90;;;;;;5036205;28;93316;-70
2022/04/25 12:49:40;;;;;;;13.23;11.90;;;17.10;71.80;;;;;;5036334;28;92962;-70
2022/04/25 12:52:09;;;;;;;14.45;9.70;;;17.20;71.70;;;;;;5018960;28;92518;-70
2022/04/25 12:54:42;;;;;;;10.43;9.27;;;17.20;71.60;;;;;;5035502;28;92450;-70
2022/04/25 12:57:36;;;;;;;12.82;10.43;;;17.30;71.30;;;;;;5035879;28;94695;-70
2022/04/25 13:00:05;;;;;;;11.57;10.37;;;17.60;71.00;;;;;;5034159;28;93273;-70
2022/04/25 13:02:35;;;;;;;13.52;10.65;;;17.80;70.50;;;;;;5018209;27;92913;-70
2022/04/25 13:05:07;;;;;;;10.65;9.57;;;17.80;70.10;;;;;;5036713;28;92338;-70
2022/04/25 13:07:37;;;;;;;11.75;10.63;;;17.90;70.40;;;;;;5035798;27;95782;-70
2022/04/25 13:10:09;;;;;;;12.48;11.07;;;17.90;70.10;;;;;;5036203;28;95643;-70
2022/04/25 13:12:42;;;;;;;10.30;9.02;;;18.20;70.00;;;;;;5035011;28;92469;-70
2022/04/25 13:15:14;;;;;;;11.32;10.05;;;18.30;69.60;;;;;;5037189;27;92926;-70
2022/04/25 13:17:42;;;;;;;11.52;10.50;;;18.20;69.20;;;;;;5068183;27;95508;-70
2022/04/25 13:20:13;;;;;;;12.30;11.00;;;18.30;68.70;;;;;;5034928;28;95568;-70
2022/04/25 13:22:44;;;;;;;11.82;10.73;;;18.20;69.20;;;;;;5035465;27;104155;-72
2022/04/25 13:25:14;;;;;;;12.38;11.00;;;18.20;69.30;;;;;;5018991;28;91720;-71
2022/04/25 13:27:42;;;;;;;13.55;12.00;;;18.30;69.40;;;;;;5036053;27;93230;-71
2022/04/25 13:30:12;;;;;;;13.77;12.35;;;18.30;69.00;;;;;;5036123;27;93092;-71